WetterOnline ( https://www.wetteronline.de )

Wetter aktuell Bad Laer

Aktuelles Wetter: Belm (103m)

6-stündlich | Neueste Meldungen
Ortszeit Temperatur Wetter
So, 07.03. 19:00 3.2° C bedeckt
So, 07.03. 13:00 2.8° C bedeckt
So, 07.03. 7:00 -1.8° C leicht bewölkt
So, 07.03. 1:00 0.1° C wolkenlos
Sa, 06.03. 19:00 4.4° C bedeckt
Sa, 06.03. 13:00 5.2° C wolkig
Sa, 06.03. 7:00 -2.5° C bewölkt
Sa, 06.03. 1:00 -2.5° C wolkenlos
Ortszeit Temperatur Wetter
So, 07.03. 20:00 3.2° C bedeckt
So, 07.03. 19:30 3.3° C bedeckt
So, 07.03. 19:20 3.3° C bedeckt
So, 07.03. 19:10 3.2° C bedeckt
So, 07.03. 19:00 3.2° C bedeckt
So, 07.03. 18:50 3.2° C bedeckt
So, 07.03. 18:30 3.5° C Sprühregen
So, 07.03. 18:00 3.5° C bedeckt
Ortszeit Relative Feuchte Sichtweite
So, 07.03. 19:00 70% 40 km
So, 07.03. 13:00 67% 65 km
So, 07.03. 7:00 96% 14 km
So, 07.03. 1:00 86% 50 km
Sa, 06.03. 19:00 71% 65 km
Sa, 06.03. 13:00 60% 50 km
Sa, 06.03. 7:00 89% 35 km
Sa, 06.03. 1:00 85% 40 km
Ortszeit Relative Feuchte Sichtweite
So, 07.03. 20:00 70% 35 km
So, 07.03. 19:30 69% 45 km
So, 07.03. 19:20 69% -
So, 07.03. 19:10 70% -
So, 07.03. 19:00 70% 40 km
So, 07.03. 18:50 70% -
So, 07.03. 18:30 67% 30 km
So, 07.03. 18:00 68% 40 km
Ortszeit Niederschlagsmenge Niederschlagsart
So, 07.03. 19:00 0.1 l/m2 in 12 Std. Regen
So, 07.03. 13:00 0.0 l/m2 in 6 Std. -
So, 07.03. 7:00 0.0 l/m2 in 12 Std. -
So, 07.03. 1:00 0.0 l/m2 in 6 Std. -
Sa, 06.03. 19:00 0.0 l/m2 in 12 Std. -
Sa, 06.03. 13:00 0.0 l/m2 in 6 Std. -
Sa, 06.03. 7:00 0.0 l/m2 in 12 Std. -
Sa, 06.03. 1:00 0.0 l/m2 in 6 Std. -
Ortszeit Niederschlagsmenge Niederschlagsart
So, 07.03. 20:00 0.0 l/m2 in 1 Std. -
So, 07.03. 19:30 0.0 l/m2 in 1 Std. -
So, 07.03. 19:20 keine Meldung -
So, 07.03. 19:10 keine Meldung -
So, 07.03. 19:00 0.1 l/m2 in 1 Std. Regen
So, 07.03. 18:50 keine Meldung -
So, 07.03. 18:30 0.1 l/m2 in 1 Std. -
So, 07.03. 18:00 0.0 l/m2 in 1 Std. -
Ortszeit Stärke Spitze Richtung
km/h Bft. km/h Grad Sektor
So, 07.03. 19:00 13 3 28 280° W
So, 07.03. 13:00 18 3 25 280° W
So, 07.03. 7:00 4 1 7 150° SO
So, 07.03. 1:00 0 0 11 - -
Sa, 06.03. 19:00 6 1 22 320° NW
Sa, 06.03. 13:00 11 2 25 270° W
Sa, 06.03. 7:00 2 1 6 150° SO
Sa, 06.03. 1:00 4 1 7 120° SO
Ortszeit Stärke Spitze Richtung
km/h Bft. km/h Grad Sektor
So, 07.03. 20:00 14 3 22 280° W
So, 07.03. 19:30 15 3 20 280° W
So, 07.03. 19:20 15 3 - 280° W
So, 07.03. 19:10 14 3 - 280° W
So, 07.03. 19:00 13 3 22 280° W
So, 07.03. 18:50 13 3 - 280° W
So, 07.03. 18:30 11 2 22 290° W
So, 07.03. 18:00 13 3 24 290° W
Ortszeit Untergrenze Bedeckung Gattung
total tief tief mittel hoch
So, 07.03. 19:00 780 m 8/8 8/8 - - -
So, 07.03. 13:00 930 m 8/8 8/8 - - -
So, 07.03. 7:00 1080 m 3/8 3/8 - - -
So, 07.03. 1:00 - 0/8 0/8 - - -
Sa, 06.03. 19:00 1320 m 8/8 8/8 - - -
Sa, 06.03. 13:00 810 m 6/8 6/8 - - -
Sa, 06.03. 7:00 1050 m 7/8 7/8 - - -
Sa, 06.03. 1:00 - 0/8 0/8 - - -
Ortszeit Bedeckungsgrad in Achtel und Wolkenuntergrenze
So, 07.03. 20:00 5(1230m) 8(1500m)
So, 07.03. 19:30 7(1350m) 8(1500m)
So, 07.03. 19:20 7(1350m) 8(1500m)
So, 07.03. 19:10 1(780m) 6(1320m) 8(1500m)
So, 07.03. 19:00 3(780m) 7(1380m) 8(1500m)
So, 07.03. 18:50 3(780m) 7(1380m) 8(1500m)
So, 07.03. 18:30 8(810m)
So, 07.03. 18:00 7(840m) 8(1260m)
Ortszeit Luftdruck NN (hPa) Tendenz (hPa in 3 Std.)
So, 07.03. 19:00 1023 - 0,5
So, 07.03. 13:00 1026 - 0,9
So, 07.03. 7:00 1027 - 0,9
So, 07.03. 1:00 1030 - 1,2
Sa, 06.03. 19:00 1032 - 0,7
Sa, 06.03. 13:00 1034 - 0,5
Sa, 06.03. 7:00 1035 + 0,5
Sa, 06.03. 1:00 1034 + 1,0
Ortszeit Luftdruck NN (hPa) Tendenz (hPa in 3 Std.)
So, 07.03. 20:00 1023 + 0,1
So, 07.03. 19:30 1023 - 0,1
So, 07.03. 19:20 1023 keine Meldung
So, 07.03. 19:10 1023 keine Meldung
So, 07.03. 19:00 1023 - 0,5
So, 07.03. 18:50 1023 keine Meldung
So, 07.03. 18:30 1023 - 0,9
So, 07.03. 18:00 1023 - 1,2
Ortszeit Schneehöhe (cm)
So, 07.03. 19:00 0
So, 07.03. 13:00 0
So, 07.03. 7:00 0
So, 07.03. 1:00 0
Sa, 06.03. 19:00 0
Sa, 06.03. 13:00 0
Sa, 06.03. 7:00 0
Sa, 06.03. 1:00 0
Ortszeit Schneehöhe (cm)
So, 07.03. 20:00 0
So, 07.03. 19:30 0
So, 07.03. 19:20 0
So, 07.03. 19:10 0
So, 07.03. 19:00 0
So, 07.03. 18:50 0
So, 07.03. 18:30 0
So, 07.03. 18:00 0
Link zu dieser Seite / Seite empfehlen

Das Wetter in ...